Genesis Eagle — WDG9347 — position and weather

sailwx.info

Track history (hours):
 
Tides and Currents Weather Stations Pressure Air Temp Water Temp Dewpoint Dewpoint Depression Visibility Wind Speed Wind Dir Waves Ship Positions

Genesis Eagle

Owner: Genesis Marine, LLC, Houston, TX. More information available from US FCC via Universal Licensing System and Coast Guard Vessel Documentation Center.

Last reported at 2017-Oct-15 17:42 UTC. Time now 2017-Oct-17 02:21 UTC.
Position N 42°16' W 070°39'.

Length 35 m; draft 8.2 m.

Type: Tug. MMSI: 338131000.

Date/timePositionNaut miles runAvg speedWind from/ knotsBaromVisibWave heightAir tempDewpointWater temp
2017-Oct-15 17:42N 42°16' W 070°39'5 9.7
2017-Oct-15 17:12N 42°20' W 070°43'2 9.9
2017-Oct-15 17:00N 42°21' W 070°45'5 9.4
2017-Oct-15 16:30N 42°23' W 070°51'5 9.5
2017-Oct-15 16:00N 42°20' W 070°56'4 8.5
2017-Oct-15 15:30N 42°21' W 071°02'2 3.5
2017-Oct-15 15:00N 42°23' W 071°02'0 0.2
2017-Oct-15 14:00N 42°23' W 071°01'0 0.0
2017-Oct-15 13:29N 42°23' W 071°01'0 0.0
2017-Oct-15 13:00N 42°23' W 071°01'0 0.0
2017-Oct-15 12:29N 42°23' W 071°01'0 0.0
2017-Oct-15 12:00N 42°23' W 071°01'0 0.0
2017-Oct-15 11:30N 42°23' W 071°01'0 0.0
2017-Oct-15 10:58N 42°23' W 071°01'0 0.0
2017-Oct-15 10:29N 42°23' W 071°01'0 0.0
2017-Oct-15 09:57N 42°23' W 071°01'0 0.0
2017-Oct-15 09:09N 42°23' W 071°01'0 0.0
2017-Oct-15 08:59N 42°23' W 071°01'0 0.0
2017-Oct-15 07:26N 42°23' W 071°01'0 0.0
2017-Oct-15 05:14N 42°23' W 071°01'0 0.0
2017-Oct-15 02:39N 42°23' W 071°01'0 0.0
2017-Oct-15 02:19N 42°23' W 071°01'0 0.0
2017-Oct-15 02:00N 42°23' W 071°01'0 0.0
2017-Oct-15 01:22N 42°23' W 071°01'0 0.6
2017-Oct-15 01:01N 42°23' W 071°02'1 1.3
2017-Oct-15 00:30N 42°23' W 071°03'0 0.0
2017-Oct-15 00:00N 42°23' W 071°03'0 0.0
2017-Oct-14 23:30N 42°23' W 071°03'0 0.0
2017-Oct-14 23:00N 42°23' W 071°03'0 0.0
2017-Oct-14 22:30N 42°23' W 071°03'0 0.0
2017-Oct-14 22:00N 42°23' W 071°03'0 0.0
2017-Oct-14 21:30N 42°23' W 071°03'0 0.0
2017-Oct-14 21:00N 42°23' W 071°03'0 0.0
2017-Oct-14 20:30N 42°23' W 071°03'0 0.0
2017-Oct-14 20:00N 42°23' W 071°03'0 0.0
2017-Oct-14 19:30N 42°23' W 071°03'0 0.0
2017-Oct-14 19:00N 42°23' W 071°03'0 0.0
2017-Oct-14 18:30N 42°23' W 071°03'0 0.0
2017-Oct-14 18:00N 42°23' W 071°03'0 0.0
2017-Oct-14 17:30N 42°23' W 071°03'0 0.0
2017-Oct-14 17:00N 42°23' W 071°03'0 0.0
2017-Oct-14 16:30N 42°23' W 071°03'1 1.7
2017-Oct-14 15:59N 42°23' W 071°01'0 0.0
2017-Oct-14 15:21N 42°23' W 071°01'0 0.0
2017-Oct-14 14:48N 42°23' W 071°01'0 1.4
2017-Oct-14 14:30N 42°23' W 071°01'0 0.5
2017-Oct-14 14:00N 42°23' W 071°01'1 2.5
2017-Oct-14 13:30N 42°23' W 071°03'0 0.3
2017-Oct-14 13:00N 42°22' W 071°03'1 2.1
2017-Oct-14 12:30N 42°21' W 071°02'3 5.2
2017-Oct-14 12:00N 42°20' W 070°59'1 1.2
2017-Oct-14 11:30N 42°20' W 070°59'0 0.0
2017-Oct-14 11:00N 42°20' W 070°59'0 0.0
2017-Oct-14 10:30N 42°20' W 070°59'0 0.0
2017-Oct-14 10:00N 42°20' W 070°59'0 0.0
2017-Oct-14 09:30N 42°20' W 070°59'0 0.1
2017-Oct-14 09:00N 42°20' W 070°59'0 0.2
2017-Oct-14 08:30N 42°20' W 070°59'0 0.1
2017-Oct-14 08:00N 42°20' W 070°59'0 0.1
2017-Oct-14 07:30N 42°20' W 070°59'0 0.0
2017-Oct-14 07:00N 42°20' W 070°59'0 0.0
2017-Oct-14 06:30N 42°20' W 070°59'0 0.2
2017-Oct-14 06:00N 42°20' W 070°58'0 0.2
2017-Oct-14 05:30N 42°20' W 070°58'0 0.1
2017-Oct-14 05:00N 42°20' W 070°58'0 0.0
2017-Oct-14 04:30N 42°20' W 070°58'0 0.0
2017-Oct-14 04:00N 42°20' W 070°58'0 0.0
2017-Oct-14 03:30N 42°20' W 070°58'0 0.0
2017-Oct-14 03:00N 42°20' W 070°58'0 0.0
2017-Oct-14 02:30N 42°20' W 070°58'0 0.0
2017-Oct-14 02:00N 42°20' W 070°58'0 0.1
2017-Oct-14 01:28N 42°20' W 070°58'0 0.4
2017-Oct-14 00:57N 42°20' W 070°58'3 6.4
2017-Oct-14 00:29N 42°22' W 070°55'4 8.6
2017-Oct-13 23:58N 42°23' W 070°49'5 9.0
2017-Oct-13 23:27N 42°20' W 070°44'4 9.1
2017-Oct-13 23:00N 42°18' W 070°40'5 9.2
2017-Oct-13 22:30N 42°14' W 070°35'284 5.9
2017-Oct-11 22:32N 38°60' W 075°08'0 9.6
2017-Oct-11 22:30N 38°60' W 075°08'5 9.9
2017-Oct-11 22:00N 39°04' W 075°11'5 9.6
2017-Oct-11 21:28N 39°09' W 075°14'4 9.2
2017-Oct-11 21:00N 39°12' W 075°17'4 8.6
2017-Oct-11 20:31N 39°16' W 075°20'4 8.0
2017-Oct-11 20:00N 39°19' W 075°24'4 7.4
2017-Oct-11 19:31N 39°22' W 075°27'4 7.0
2017-Oct-11 19:00N 39°24' W 075°30'3 6.7
2017-Oct-11 18:30N 39°27' W 075°33'3 6.1
2017-Oct-11 18:00N 39°30' W 075°34'3 6.5
2017-Oct-11 17:30N 39°33' W 075°33'3 5.7
2017-Oct-11 17:00N 39°35' W 075°35'1 0.0
2017-Oct-10 23:59N 39°35' W 075°36'0 0.0
2017-Oct-10 23:29N 39°35' W 075°36'0 0.0
2017-Oct-10 22:59N 39°35' W 075°36'0 0.0
2017-Oct-10 22:29N 39°35' W 075°36'0 0.0
2017-Oct-10 21:59N 39°35' W 075°36'0 0.0
2017-Oct-10 21:29N 39°35' W 075°36'0 0.0
2017-Oct-10 20:59N 39°35' W 075°36'0 0.0
2017-Oct-10 20:29N 39°35' W 075°36'0 0.0
2017-Oct-10 19:59N 39°35' W 075°36'0 0.0
2017-Oct-10 19:29N 39°35' W 075°36'0 0.0
2017-Oct-10 18:59N 39°35' W 075°36'0 0.0
2017-Oct-10 18:29N 39°35' W 075°36'0 0.0
2017-Oct-10 17:59N 39°35' W 075°36'0 0.0
2017-Oct-10 17:29N 39°35' W 075°36'0 0.0
2017-Oct-10 16:59N 39°35' W 075°36'0 0.0
2017-Oct-10 16:29N 39°35' W 075°36'0 0.0
2017-Oct-10 15:59N 39°35' W 075°36'0 0.0
2017-Oct-10 15:29N 39°35' W 075°36'0 0.0
2017-Oct-10 14:59N 39°35' W 075°36'0 0.0
2017-Oct-10 13:59N 39°35' W 075°36'0 0.0
2017-Oct-10 13:29N 39°35' W 075°36'0 0.0
2017-Oct-10 12:59N 39°35' W 075°36'0 0.0
2017-Oct-10 12:29N 39°35' W 075°36'0 0.0
2017-Oct-10 11:59N 39°35' W 075°36'2 4.4
2017-Oct-10 11:30N 39°34' W 075°33'2 4.6
2017-Oct-10 11:00N 39°32' W 075°33'1 3.0
2017-Oct-10 10:30N 39°30' W 075°33'0 0.0
2017-Oct-10 10:00N 39°30' W 075°33'0 0.0
2017-Oct-10 09:30N 39°30' W 075°33'0 0.2
2017-Oct-10 09:00N 39°30' W 075°33'0 0.3
2017-Oct-10 08:30N 39°30' W 075°33'0 0.2
2017-Oct-10 08:00N 39°30' W 075°33'0 0.1
2017-Oct-10 07:30N 39°30' W 075°33'0 0.1
2017-Oct-10 07:00N 39°30' W 075°33'0 0.0
2017-Oct-10 06:30N 39°30' W 075°33'0 0.0
2017-Oct-10 06:00N 39°30' W 075°33'0 0.0
2017-Oct-10 05:30N 39°30' W 075°33'0 0.0
2017-Oct-10 05:00N 39°30' W 075°33'0 0.0
2017-Oct-10 04:30N 39°30' W 075°33'0 0.1
2017-Oct-10 04:00N 39°30' W 075°33'0 0.1
2017-Oct-10 03:30N 39°30' W 075°33'0 0.3
2017-Oct-10 03:00N 39°30' W 075°33'0 0.0
2017-Oct-10 02:30N 39°30' W 075°33'0 0.0
2017-Oct-10 02:00N 39°30' W 075°33'0 0.0
2017-Oct-10 01:30N 39°30' W 075°33'0 0.0
2017-Oct-10 01:00N 39°30' W 075°33'0 0.0
2017-Oct-10 00:30N 39°30' W 075°33'0 0.0
2017-Oct-10 00:00N 39°30' W 075°33'0 0.0
2017-Oct-09 23:30N 39°30' W 075°33'0 0.0
2017-Oct-09 22:57N 39°30' W 075°33'0 0.0
2017-Oct-09 22:30N 39°30' W 075°33'0 0.0
2017-Oct-09 22:00N 39°30' W 075°33'0 0.0
2017-Oct-09 21:30N 39°30' W 075°33'0 0.1
2017-Oct-09 21:00N 39°30' W 075°33'0 0.3
2017-Oct-09 20:30N 39°30' W 075°33'0 0.1
2017-Oct-09 20:00N 39°30' W 075°33'0 0.0
2017-Oct-09 19:30N 39°30' W 075°33'0 0.0
2017-Oct-09 19:00N 39°30' W 075°33'0 0.0
2017-Oct-09 18:30N 39°30' W 075°33'0 0.1
2017-Oct-09 18:00N 39°30' W 075°33'0 0.0
2017-Oct-09 17:30N 39°30' W 075°33'0 0.0
2017-Oct-09 17:00N 39°30' W 075°33'0 0.0
2017-Oct-09 16:30N 39°30' W 075°33'0 0.0
2017-Oct-09 16:00N 39°30' W 075°33'0 0.0
2017-Oct-09 15:30N 39°30' W 075°33'0 0.1
2017-Oct-09 15:00N 39°30' W 075°33'0 0.1
2017-Oct-09 14:30N 39°30' W 075°33'0 0.1
2017-Oct-09 14:00N 39°30' W 075°33'0 0.3
2017-Oct-09 13:30N 39°30' W 075°33'0 0.0
2017-Oct-09 13:00N 39°30' W 075°33'0 0.0
2017-Oct-09 12:30N 39°30' W 075°33'0 0.0
2017-Oct-09 12:00N 39°30' W 075°33'0 0.0
2017-Oct-09 11:30N 39°30' W 075°33'0 0.0
2017-Oct-09 11:00N 39°30' W 075°33'0 0.0
2017-Oct-09 10:30N 39°30' W 075°33'0 0.0
2017-Oct-09 10:00N 39°30' W 075°33'0 0.0
2017-Oct-09 09:30N 39°30' W 075°33'0 0.1
2017-Oct-09 09:00N 39°30' W 075°33'0 0.2
2017-Oct-09 08:30N 39°30' W 075°33'0 0.1
2017-Oct-09 08:00N 39°30' W 075°33'0 0.1
2017-Oct-09 07:30N 39°30' W 075°33'0 0.0
2017-Oct-09 07:00N 39°30' W 075°33'0 0.0
2017-Oct-09 06:30N 39°30' W 075°33'0 0.0
2017-Oct-09 06:00N 39°30' W 075°33'0 0.1
2017-Oct-09 05:30N 39°30' W 075°33'0 0.0
2017-Oct-09 05:00N 39°30' W 075°33'0 0.0
2017-Oct-09 04:30N 39°30' W 075°33'0 0.0
2017-Oct-09 04:00N 39°30' W 075°33'0 0.0
2017-Oct-09 03:30N 39°30' W 075°33'0 0.0
2017-Oct-09 03:00N 39°30' W 075°33'0 0.1
2017-Oct-09 02:30N 39°30' W 075°33'0 0.3
2017-Oct-09 02:00N 39°30' W 075°33'0 0.1
2017-Oct-09 01:30N 39°30' W 075°33'0 0.0
2017-Oct-09 01:00N 39°30' W 075°33'0 0.0
2017-Oct-09 00:30N 39°30' W 075°33'0 0.0
2017-Oct-09 00:00N 39°30' W 075°33'0 0.0
2017-Oct-08 23:30N 39°30' W 075°33'0 0.0
2017-Oct-08 23:00N 39°30' W 075°33'0 0.0
2017-Oct-08 22:30N 39°30' W 075°33'0 0.0
2017-Oct-08 22:00N 39°30' W 075°33'0 0.0
2017-Oct-08 21:30N 39°30' W 075°33'0 0.0
2017-Oct-08 21:00N 39°30' W 075°33'0 0.0
2017-Oct-08 20:30N 39°30' W 075°33'0 0.1
2017-Oct-08 20:00N 39°30' W 075°33'0 0.3
2017-Oct-08 19:31N 39°30' W 075°33'0 0.1
2017-Oct-08 19:00N 39°30' W 075°33'0 0.0
2017-Oct-08 18:30N 39°30' W 075°33'0 0.0
2017-Oct-08 18:00N 39°30' W 075°33'0 0.0
2017-Oct-08 17:31N 39°30' W 075°33'0 0.1
2017-Oct-08 17:00N 39°30' W 075°33'0 0.1
2017-Oct-08 16:31N 39°30' W 075°33'0 0.0
2017-Oct-08 16:01N 39°30' W 075°33'0 0.0
2017-Oct-08 15:31N 39°30' W 075°33'0 0.0
2017-Oct-08 15:00N 39°30' W 075°33'0 0.0
2017-Oct-08 14:30N 39°30' W 075°33'0 0.0
2017-Oct-08 14:00N 39°30' W 075°33'1 2.3
2017-Oct-08 13:30N 39°29' W 075°34'4 8.8
2017-Oct-08 13:00N 39°25' W 075°31'5 9.2
2017-Oct-08 12:30N 39°22' W 075°27'4 8.9
2017-Oct-08 12:00N 39°19' W 075°24'4 8.8
2017-Oct-08 11:30N 39°15' W 075°20'4 8.5
2017-Oct-08 11:00N 39°12' W 075°17'4 8.8
2017-Oct-08 10:30N 39°08' W 075°14'4 8.7
2017-Oct-08 10:00N 39°04' W 075°11'5 8.8
2017-Oct-08 09:26N 38°60' W 075°08'13 8.3
2017-Oct-08 07:51N 38°48' W 075°01'5 8.0
2017-Oct-08 07:17N 38°48' W 074°55'2 8.1
2017-Oct-08 07:00N 38°48' W 074°52'12 8.1
2017-Oct-08 05:28N 38°49' W 074°37'4 8.2
2017-Oct-08 05:00N 38°52' W 074°33'4 8.5
2017-Oct-08 04:29N 38°55' W 074°29'4 8.5
2017-Oct-08 04:00N 38°58' W 074°25'5 8.6
2017-Oct-08 03:28N 39°01' W 074°20'4 8.7
2017-Oct-08 03:00N 39°04' W 074°17'4 8.6
2017-Oct-08 02:30N 39°07' W 074°13'4 8.7
2017-Oct-08 02:00N 39°10' W 074°09'5 8.8
2017-Oct-08 01:23N 39°13' W 074°04'23 9.1
2017-Oct-07 22:51N 39°29' W 073°42'4 9.3
2017-Oct-07 22:22N 39°32' W 073°38'5 9.3
2017-Oct-07 21:49N 39°36' W 073°33'4 9.3
2017-Oct-07 21:25N 39°38' W 073°29'47 9.4
2017-Oct-07 16:28N 40°10' W 072°45'158 8.4
2017-Oct-06 21:40N 42°17' W 070°40'2 9.7
2017-Oct-06 21:30N 42°18' W 070°42'5 9.8
2017-Oct-06 21:00N 42°21' W 070°47'5 9.3
2017-Oct-06 20:30N 42°23' W 070°53'510.0
2017-Oct-06 20:00N 42°20' W 070°59'4 7.5
2017-Oct-06 19:30N 42°23' W 071°03'1 1.2
2017-Oct-06 18:33N 42°23' W 071°01'0 0.0
2017-Oct-06 18:30N 42°23' W 071°01'0 0.0
2017-Oct-06 17:44N 42°23' W 071°01'0 0.0
2017-Oct-06 17:04N 42°23' W 071°01'0 0.1
2017-Oct-06 16:56N 42°23' W 071°01'0 0.0
2017-Oct-06 16:27N 42°23' W 071°01'0 0.0
2017-Oct-06 15:55N 42°23' W 071°01'0 0.0
2017-Oct-06 15:27N 42°23' W 071°01'0 0.0
2017-Oct-06 14:10N 42°23' W 071°01'0 0.0
2017-Oct-06 14:00N 42°23' W 071°01'0 0.0
2017-Oct-06 13:30N 42°23' W 071°01'0 0.0
2017-Oct-06 13:00N 42°23' W 071°01'0 0.0
2017-Oct-06 12:30N 42°23' W 071°01'0 0.0
2017-Oct-06 12:00N 42°23' W 071°01'0 0.0
2017-Oct-06 11:28N 42°23' W 071°01'0 0.0
2017-Oct-06 11:00N 42°23' W 071°01'0 0.0
2017-Oct-06 10:30N 42°23' W 071°01'0 0.0
2017-Oct-06 10:00N 42°23' W 071°01'0 0.0
2017-Oct-06 09:30N 42°23' W 071°01'0 0.0
2017-Oct-06 09:00N 42°23' W 071°01'0 0.0
2017-Oct-06 08:18N 42°23' W 071°01'0 0.0
2017-Oct-06 08:00N 42°23' W 071°01'0 0.0
2017-Oct-06 07:30N 42°23' W 071°01'0 0.0
2017-Oct-06 07:00N 42°23' W 071°01'0 0.0
2017-Oct-06 06:30N 42°23' W 071°01'0 0.0
2017-Oct-06 06:00N 42°23' W 071°01'0 0.0
2017-Oct-06 05:30N 42°23' W 071°01'0 0.0
2017-Oct-06 05:00N 42°23' W 071°01'0 0.0
2017-Oct-06 04:30N 42°23' W 071°01'0 0.0
2017-Oct-06 04:00N 42°23' W 071°01'0 0.0
2017-Oct-06 03:29N 42°23' W 071°01'1 1.9
2017-Oct-06 03:00N 42°23' W 071°03'0 0.0
2017-Oct-06 02:30N 42°23' W 071°03'0 0.0
2017-Oct-06 02:00N 42°23' W 071°03'0 0.0
2017-Oct-06 01:30N 42°23' W 071°03'0 0.0
2017-Oct-06 01:00N 42°23' W 071°03'0 0.0
2017-Oct-06 00:30N 42°23' W 071°03'0 0.0
2017-Oct-06 00:00N 42°23' W 071°03'0 0.0
2017-Oct-05 23:30N 42°23' W 071°03'0 0.0
2017-Oct-05 23:00N 42°23' W 071°03'0 0.0
2017-Oct-05 22:30N 42°23' W 071°03'0 0.0
2017-Oct-05 22:00N 42°23' W 071°03'0 0.6
2017-Oct-05 21:30N 42°23' W 071°03'0 0.0
2017-Oct-05 21:00N 42°23' W 071°03'0 0.0
2017-Oct-05 20:30N 42°23' W 071°03'0 0.0
2017-Oct-05 20:00N 42°23' W 071°03'0 0.0
2017-Oct-05 19:30N 42°23' W 071°03'0 0.0
2017-Oct-05 19:00N 42°23' W 071°03'1 1.2
2017-Oct-05 18:28N 42°23' W 071°02'0 0.5
2017-Oct-05 17:57N 42°23' W 071°01'  
Track history (hours):
 
Tides and Currents Weather Stations Pressure Air Temp Water Temp Dewpoint Dewpoint Depression Visibility Wind Speed Wind Dir Waves Ship Positions

Genesis Eagle

Owner: Genesis Marine, LLC, Houston, TX. More information available from US FCC via Universal Licensing System and Coast Guard Vessel Documentation Center.

Last reported at 2017-Oct-15 17:42 UTC. Time now 2017-Oct-17 02:21 UTC.
Position N 42°16' W 070°39'.

Length 35 m; draft 8.2 m.

Type: Tug. MMSI: 338131000.

Date/timePositionNaut miles runAvg speedWind from/ knotsBaromVisibWave heightAir tempDewpointWater temp
2017-Oct-15 17:42N 42°16' W 070°39'5 9.7
2017-Oct-15 17:12N 42°20' W 070°43'2 9.9
2017-Oct-15 17:00N 42°21' W 070°45'5 9.4
2017-Oct-15 16:30N 42°23' W 070°51'5 9.5
2017-Oct-15 16:00N 42°20' W 070°56'4 8.5
2017-Oct-15 15:30N 42°21' W 071°02'2 3.5
2017-Oct-15 15:00N 42°23' W 071°02'0 0.2
2017-Oct-15 14:00N 42°23' W 071°01'0 0.0
2017-Oct-15 13:29N 42°23' W 071°01'0 0.0
2017-Oct-15 13:00N 42°23' W 071°01'0 0.0
2017-Oct-15 12:29N 42°23' W 071°01'0 0.0
2017-Oct-15 12:00N 42°23' W 071°01'0 0.0
2017-Oct-15 11:30N 42°23' W 071°01'0 0.0
2017-Oct-15 10:58N 42°23' W 071°01'0 0.0
2017-Oct-15 10:29N 42°23' W 071°01'0 0.0
2017-Oct-15 09:57N 42°23' W 071°01'0 0.0
2017-Oct-15 09:09N 42°23' W 071°01'0 0.0
2017-Oct-15 08:59N 42°23' W 071°01'0 0.0
2017-Oct-15 07:26N 42°23' W 071°01'0 0.0
2017-Oct-15 05:14N 42°23' W 071°01'0 0.0
2017-Oct-15 02:39N 42°23' W 071°01'0 0.0
2017-Oct-15 02:19N 42°23' W 071°01'0 0.0
2017-Oct-15 02:00N 42°23' W 071°01'0 0.0
2017-Oct-15 01:22N 42°23' W 071°01'0 0.6
2017-Oct-15 01:01N 42°23' W 071°02'1 1.3
2017-Oct-15 00:30N 42°23' W 071°03'0 0.0
2017-Oct-15 00:00N 42°23' W 071°03'0 0.0
2017-Oct-14 23:30N 42°23' W 071°03'0 0.0
2017-Oct-14 23:00N 42°23' W 071°03'0 0.0
2017-Oct-14 22:30N 42°23' W 071°03'0 0.0
2017-Oct-14 22:00N 42°23' W 071°03'0 0.0
2017-Oct-14 21:30N 42°23' W 071°03'0 0.0
2017-Oct-14 21:00N 42°23' W 071°03'0 0.0
2017-Oct-14 20:30N 42°23' W 071°03'0 0.0
2017-Oct-14 20:00N 42°23' W 071°03'0 0.0
2017-Oct-14 19:30N 42°23' W 071°03'0 0.0
2017-Oct-14 19:00N 42°23' W 071°03'0 0.0
2017-Oct-14 18:30N 42°23' W 071°03'0 0.0
2017-Oct-14 18:00N 42°23' W 071°03'0 0.0
2017-Oct-14 17:30N 42°23' W 071°03'0 0.0
2017-Oct-14 17:00N 42°23' W 071°03'0 0.0
2017-Oct-14 16:30N 42°23' W 071°03'1 1.7
2017-Oct-14 15:59N 42°23' W 071°01'0 0.0
2017-Oct-14 15:21N 42°23' W 071°01'0 0.0
2017-Oct-14 14:48N 42°23' W 071°01'0 1.4
2017-Oct-14 14:30N 42°23' W 071°01'0 0.5
2017-Oct-14 14:00N 42°23' W 071°01'1 2.5
2017-Oct-14 13:30N 42°23' W 071°03'0 0.3
2017-Oct-14 13:00N 42°22' W 071°03'1 2.1
2017-Oct-14 12:30N 42°21' W 071°02'3 5.2
2017-Oct-14 12:00N 42°20' W 070°59'1 1.2
2017-Oct-14 11:30N 42°20' W 070°59'0 0.0
2017-Oct-14 11:00N 42°20' W 070°59'0 0.0
2017-Oct-14 10:30N 42°20' W 070°59'0 0.0
2017-Oct-14 10:00N 42°20' W 070°59'0 0.0
2017-Oct-14 09:30N 42°20' W 070°59'0 0.1
2017-Oct-14 09:00N 42°20' W 070°59'0 0.2
2017-Oct-14 08:30N 42°20' W 070°59'0 0.1
2017-Oct-14 08:00N 42°20' W 070°59'0 0.1
2017-Oct-14 07:30N 42°20' W 070°59'0 0.0
2017-Oct-14 07:00N 42°20' W 070°59'0 0.0
2017-Oct-14 06:30N 42°20' W 070°59'0 0.2
2017-Oct-14 06:00N 42°20' W 070°58'0 0.2
2017-Oct-14 05:30N 42°20' W 070°58'0 0.1
2017-Oct-14 05:00N 42°20' W 070°58'0 0.0
2017-Oct-14 04:30N 42°20' W 070°58'0 0.0
2017-Oct-14 04:00N 42°20' W 070°58'0 0.0
2017-Oct-14 03:30N 42°20' W 070°58'0 0.0
2017-Oct-14 03:00N 42°20' W 070°58'0 0.0
2017-Oct-14 02:30N 42°20' W 070°58'0 0.0
2017-Oct-14 02:00N 42°20' W 070°58'0 0.1
2017-Oct-14 01:28N 42°20' W 070°58'0 0.4
2017-Oct-14 00:57N 42°20' W 070°58'3 6.4
2017-Oct-14 00:29N 42°22' W 070°55'4 8.6
2017-Oct-13 23:58N 42°23' W 070°49'5 9.0
2017-Oct-13 23:27N 42°20' W 070°44'4 9.1
2017-Oct-13 23:00N 42°18' W 070°40'5 9.2
2017-Oct-13 22:30N 42°14' W 070°35'284 5.9
2017-Oct-11 22:32N 38°60' W 075°08'0 9.6
2017-Oct-11 22:30N 38°60' W 075°08'5 9.9
2017-Oct-11 22:00N 39°04' W 075°11'5 9.6
2017-Oct-11 21:28N 39°09' W 075°14'4 9.2
2017-Oct-11 21:00N 39°12' W 075°17'4 8.6
2017-Oct-11 20:31N 39°16' W 075°20'4 8.0
2017-Oct-11 20:00N 39°19' W 075°24'4 7.4
2017-Oct-11 19:31N 39°22' W 075°27'4 7.0
2017-Oct-11 19:00N 39°24' W 075°30'3 6.7
2017-Oct-11 18:30N 39°27' W 075°33'3 6.1
2017-Oct-11 18:00N 39°30' W 075°34'3 6.5
2017-Oct-11 17:30N 39°33' W 075°33'3 5.7
2017-Oct-11 17:00N 39°35' W 075°35'1 0.0
2017-Oct-10 23:59N 39°35' W 075°36'0 0.0
2017-Oct-10 23:29N 39°35' W 075°36'0 0.0
2017-Oct-10 22:59N 39°35' W 075°36'0 0.0
2017-Oct-10 22:29N 39°35' W 075°36'0 0.0
2017-Oct-10 21:59N 39°35' W 075°36'0 0.0
2017-Oct-10 21:29N 39°35' W 075°36'0 0.0
2017-Oct-10 20:59N 39°35' W 075°36'0 0.0
2017-Oct-10 20:29N 39°35' W 075°36'0 0.0
2017-Oct-10 19:59N 39°35' W 075°36'0 0.0
2017-Oct-10 19:29N 39°35' W 075°36'0 0.0
2017-Oct-10 18:59N 39°35' W 075°36'0 0.0
2017-Oct-10 18:29N 39°35' W 075°36'0 0.0
2017-Oct-10 17:59N 39°35' W 075°36'0 0.0
2017-Oct-10 17:29N 39°35' W 075°36'0 0.0
2017-Oct-10 16:59N 39°35' W 075°36'0 0.0
2017-Oct-10 16:29N 39°35' W 075°36'0 0.0
2017-Oct-10 15:59N 39°35' W 075°36'0 0.0
2017-Oct-10 15:29N 39°35' W 075°36'0 0.0
2017-Oct-10 14:59N 39°35' W 075°36'0 0.0
2017-Oct-10 13:59N 39°35' W 075°36'0 0.0
2017-Oct-10 13:29N 39°35' W 075°36'0 0.0
2017-Oct-10 12:59N 39°35' W 075°36'0 0.0
2017-Oct-10 12:29N 39°35' W 075°36'0 0.0
2017-Oct-10 11:59N 39°35' W 075°36'2 4.4
2017-Oct-10 11:30N 39°34' W 075°33'2 4.6
2017-Oct-10 11:00N 39°32' W 075°33'1 3.0
2017-Oct-10 10:30N 39°30' W 075°33'0 0.0
2017-Oct-10 10:00N 39°30' W 075°33'0 0.0
2017-Oct-10 09:30N 39°30' W 075°33'0 0.2
2017-Oct-10 09:00N 39°30' W 075°33'0 0.3
2017-Oct-10 08:30N 39°30' W 075°33'0 0.2
2017-Oct-10 08:00N 39°30' W 075°33'0 0.1
2017-Oct-10 07:30N 39°30' W 075°33'0 0.1
2017-Oct-10 07:00N 39°30' W 075°33'0 0.0
2017-Oct-10 06:30N 39°30' W 075°33'0 0.0
2017-Oct-10 06:00N 39°30' W 075°33'0 0.0
2017-Oct-10 05:30N 39°30' W 075°33'0 0.0
2017-Oct-10 05:00N 39°30' W 075°33'0 0.0
2017-Oct-10 04:30N 39°30' W 075°33'0 0.1
2017-Oct-10 04:00N 39°30' W 075°33'0 0.1
2017-Oct-10 03:30N 39°30' W 075°33'0 0.3
2017-Oct-10 03:00N 39°30' W 075°33'0 0.0
2017-Oct-10 02:30N 39°30' W 075°33'0 0.0
2017-Oct-10 02:00N 39°30' W 075°33'0 0.0
2017-Oct-10 01:30N 39°30' W 075°33'0 0.0
2017-Oct-10 01:00N 39°30' W 075°33'0 0.0
2017-Oct-10 00:30N 39°30' W 075°33'0 0.0
2017-Oct-10 00:00N 39°30' W 075°33'0 0.0
2017-Oct-09 23:30N 39°30' W 075°33'0 0.0
2017-Oct-09 22:57N 39°30' W 075°33'0 0.0
2017-Oct-09 22:30N 39°30' W 075°33'0 0.0
2017-Oct-09 22:00N 39°30' W 075°33'0 0.0
2017-Oct-09 21:30N 39°30' W 075°33'0 0.1
2017-Oct-09 21:00N 39°30' W 075°33'0 0.3
2017-Oct-09 20:30N 39°30' W 075°33'0 0.1
2017-Oct-09 20:00N 39°30' W 075°33'0 0.0
2017-Oct-09 19:30N 39°30' W 075°33'0 0.0
2017-Oct-09 19:00N 39°30' W 075°33'0 0.0
2017-Oct-09 18:30N 39°30' W 075°33'0 0.1
2017-Oct-09 18:00N 39°30' W 075°33'0 0.0
2017-Oct-09 17:30N 39°30' W 075°33'0 0.0
2017-Oct-09 17:00N 39°30' W 075°33'0 0.0
2017-Oct-09 16:30N 39°30' W 075°33'0 0.0
2017-Oct-09 16:00N 39°30' W 075°33'0 0.0
2017-Oct-09 15:30N 39°30' W 075°33'0 0.1
2017-Oct-09 15:00N 39°30' W 075°33'0 0.1
2017-Oct-09 14:30N 39°30' W 075°33'0 0.1
2017-Oct-09 14:00N 39°30' W 075°33'0 0.3
2017-Oct-09 13:30N 39°30' W 075°33'0 0.0
2017-Oct-09 13:00N 39°30' W 075°33'0 0.0
2017-Oct-09 12:30N 39°30' W 075°33'0 0.0
2017-Oct-09 12:00N 39°30' W 075°33'0 0.0
2017-Oct-09 11:30N 39°30' W 075°33'0 0.0
2017-Oct-09 11:00N 39°30' W 075°33'0 0.0
2017-Oct-09 10:30N 39°30' W 075°33'0 0.0
2017-Oct-09 10:00N 39°30' W 075°33'0 0.0
2017-Oct-09 09:30N 39°30' W 075°33'0 0.1
2017-Oct-09 09:00N 39°30' W 075°33'0 0.2
2017-Oct-09 08:30N 39°30' W 075°33'0 0.1
2017-Oct-09 08:00N 39°30' W 075°33'0 0.1
2017-Oct-09 07:30N 39°30' W 075°33'0 0.0
2017-Oct-09 07:00N 39°30' W 075°33'0 0.0
2017-Oct-09 06:30N 39°30' W 075°33'0 0.0
2017-Oct-09 06:00N 39°30' W 075°33'0 0.1
2017-Oct-09 05:30N 39°30' W 075°33'0 0.0
2017-Oct-09 05:00N 39°30' W 075°33'0 0.0
2017-Oct-09 04:30N 39°30' W 075°33'0 0.0
2017-Oct-09 04:00N 39°30' W 075°33'0 0.0
2017-Oct-09 03:30N 39°30' W 075°33'0 0.0
2017-Oct-09 03:00N 39°30' W 075°33'0 0.1
2017-Oct-09 02:30N 39°30' W 075°33'0 0.3
2017-Oct-09 02:00N 39°30' W 075°33'0 0.1
2017-Oct-09 01:30N 39°30' W 075°33'0 0.0
2017-Oct-09 01:00N 39°30' W 075°33'0 0.0
2017-Oct-09 00:30N 39°30' W 075°33'0 0.0
2017-Oct-09 00:00N 39°30' W 075°33'0 0.0
2017-Oct-08 23:30N 39°30' W 075°33'0 0.0
2017-Oct-08 23:00N 39°30' W 075°33'0 0.0
2017-Oct-08 22:30N 39°30' W 075°33'0 0.0
2017-Oct-08 22:00N 39°30' W 075°33'0 0.0
2017-Oct-08 21:30N 39°30' W 075°33'0 0.0
2017-Oct-08 21:00N 39°30' W 075°33'0 0.0
2017-Oct-08 20:30N 39°30' W 075°33'0 0.1
2017-Oct-08 20:00N 39°30' W 075°33'0 0.3
2017-Oct-08 19:31N 39°30' W 075°33'0 0.1
2017-Oct-08 19:00N 39°30' W 075°33'0 0.0
2017-Oct-08 18:30N 39°30' W 075°33'0 0.0
2017-Oct-08 18:00N 39°30' W 075°33'0 0.0
2017-Oct-08 17:31N 39°30' W 075°33'0 0.1
2017-Oct-08 17:00N 39°30' W 075°33'0 0.1
2017-Oct-08 16:31N 39°30' W 075°33'0 0.0
2017-Oct-08 16:01N 39°30' W 075°33'0 0.0
2017-Oct-08 15:31N 39°30' W 075°33'0 0.0
2017-Oct-08 15:00N 39°30' W 075°33'0 0.0
2017-Oct-08 14:30N 39°30' W 075°33'0 0.0
2017-Oct-08 14:00N 39°30' W 075°33'1 2.3
2017-Oct-08 13:30N 39°29' W 075°34'4 8.8
2017-Oct-08 13:00N 39°25' W 075°31'5 9.2
2017-Oct-08 12:30N 39°22' W 075°27'4 8.9
2017-Oct-08 12:00N 39°19' W 075°24'4 8.8
2017-Oct-08 11:30N 39°15' W 075°20'4 8.5
2017-Oct-08 11:00N 39°12' W 075°17'4 8.8
2017-Oct-08 10:30N 39°08' W 075°14'4 8.7
2017-Oct-08 10:00N 39°04' W 075°11'5 8.8
2017-Oct-08 09:26N 38°60' W 075°08'13 8.3
2017-Oct-08 07:51N 38°48' W 075°01'5 8.0
2017-Oct-08 07:17N 38°48' W 074°55'2 8.1
2017-Oct-08 07:00N 38°48' W 074°52'12 8.1
2017-Oct-08 05:28N 38°49' W 074°37'4 8.2
2017-Oct-08 05:00N 38°52' W 074°33'4 8.5
2017-Oct-08 04:29N 38°55' W 074°29'4 8.5
2017-Oct-08 04:00N 38°58' W 074°25'5 8.6
2017-Oct-08 03:28N 39°01' W 074°20'4 8.7
2017-Oct-08 03:00N 39°04' W 074°17'4 8.6
2017-Oct-08 02:30N 39°07' W 074°13'4 8.7
2017-Oct-08 02:00N 39°10' W 074°09'5 8.8
2017-Oct-08 01:23N 39°13' W 074°04'23 9.1
2017-Oct-07 22:51N 39°29' W 073°42'4 9.3
2017-Oct-07 22:22N 39°32' W 073°38'5 9.3
2017-Oct-07 21:49N 39°36' W 073°33'4 9.3
2017-Oct-07 21:25N 39°38' W 073°29'47 9.4
2017-Oct-07 16:28N 40°10' W 072°45'158 8.4
2017-Oct-06 21:40N 42°17' W 070°40'2 9.7
2017-Oct-06 21:30N 42°18' W 070°42'5 9.8
2017-Oct-06 21:00N 42°21' W 070°47'5 9.3
2017-Oct-06 20:30N 42°23' W 070°53'510.0
2017-Oct-06 20:00N 42°20' W 070°59'4 7.5
2017-Oct-06 19:30N 42°23' W 071°03'1 1.2
2017-Oct-06 18:33N 42°23' W 071°01'0 0.0
2017-Oct-06 18:30N 42°23' W 071°01'0 0.0
2017-Oct-06 17:44N 42°23' W 071°01'0 0.0
2017-Oct-06 17:04N 42°23' W 071°01'0 0.1
2017-Oct-06 16:56N 42°23' W 071°01'0 0.0
2017-Oct-06 16:27N 42°23' W 071°01'0 0.0
2017-Oct-06 15:55N 42°23' W 071°01'0 0.0
2017-Oct-06 15:27N 42°23' W 071°01'0 0.0
2017-Oct-06 14:10N 42°23' W 071°01'0 0.0
2017-Oct-06 14:00N 42°23' W 071°01'0 0.0
2017-Oct-06 13:30N 42°23' W 071°01'0 0.0
2017-Oct-06 13:00N 42°23' W 071°01'0 0.0
2017-Oct-06 12:30N 42°23' W 071°01'0 0.0
2017-Oct-06 12:00N 42°23' W 071°01'0 0.0
2017-Oct-06 11:28N 42°23' W 071°01'0 0.0
2017-Oct-06 11:00N 42°23' W 071°01'0 0.0
2017-Oct-06 10:30N 42°23' W 071°01'0 0.0
2017-Oct-06 10:00N 42°23' W 071°01'0 0.0
2017-Oct-06 09:30N 42°23' W 071°01'0 0.0
2017-Oct-06 09:00N 42°23' W 071°01'0 0.0
2017-Oct-06 08:18N 42°23' W 071°01'0 0.0
2017-Oct-06 08:00N 42°23' W 071°01'0 0.0
2017-Oct-06 07:30N 42°23' W 071°01'0 0.0
2017-Oct-06 07:00N 42°23' W 071°01'0 0.0
2017-Oct-06 06:30N 42°23' W 071°01'0 0.0
2017-Oct-06 06:00N 42°23' W 071°01'0 0.0
2017-Oct-06 05:30N 42°23' W 071°01'0 0.0
2017-Oct-06 05:00N 42°23' W 071°01'0 0.0
2017-Oct-06 04:30N 42°23' W 071°01'0 0.0
2017-Oct-06 04:00N 42°23' W 071°01'0 0.0
2017-Oct-06 03:29N 42°23' W 071°01'1 1.9
2017-Oct-06 03:00N 42°23' W 071°03'0 0.0
2017-Oct-06 02:30N 42°23' W 071°03'0 0.0
2017-Oct-06 02:00N 42°23' W 071°03'0 0.0
2017-Oct-06 01:30N 42°23' W 071°03'0 0.0
2017-Oct-06 01:00N 42°23' W 071°03'0 0.0
2017-Oct-06 00:30N 42°23' W 071°03'0 0.0
2017-Oct-06 00:00N 42°23' W 071°03'0 0.0
2017-Oct-05 23:30N 42°23' W 071°03'0 0.0
2017-Oct-05 23:00N 42°23' W 071°03'0 0.0
2017-Oct-05 22:30N 42°23' W 071°03'0 0.0
2017-Oct-05 22:00N 42°23' W 071°03'0 0.6
2017-Oct-05 21:30N 42°23' W 071°03'0 0.0
2017-Oct-05 21:00N 42°23' W 071°03'0 0.0
2017-Oct-05 20:30N 42°23' W 071°03'0 0.0
2017-Oct-05 20:00N 42°23' W 071°03'0 0.0
2017-Oct-05 19:30N 42°23' W 071°03'0 0.0
2017-Oct-05 19:00N 42°23' W 071°03'1 1.2
2017-Oct-05 18:28N 42°23' W 071°02'0 0.5
2017-Oct-05 17:57N 42°23' W 071°01'  

Dump ship's entire track history